sensor_id;sensor_type;location;lat;lon;timestamp;pressure;altitude;pressure_sealevel;temperature;humidity
54248;BME280;40161;39.768;2.722;2023-02-14T00:01:31;103236.41;;;4.88;98.38
54248;BME280;40161;39.768;2.722;2023-02-14T00:03:56;103258.00;;;5.10;100.00
54248;BME280;40161;39.768;2.722;2023-02-14T00:06:25;103255.91;;;5.38;100.00
54248;BME280;40161;39.768;2.722;2023-02-14T00:08:50;103244.19;;;5.37;99.16
54248;BME280;40161;39.768;2.722;2023-02-14T00:11:19;103211.53;;;4.64;98.99
54248;BME280;40161;39.768;2.722;2023-02-14T00:13:44;103237.78;;;4.86;100.00
54248;BME280;40161;39.768;2.722;2023-02-14T00:16:31;103199.91;;;4.74;100.00
54248;BME280;40161;39.768;2.722;2023-02-14T00:18:56;103207.91;;;5.11;100.00
54248;BME280;40161;39.768;2.722;2023-02-14T00:21:32;103228.13;;;5.31;100.00
54248;BME280;40161;39.768;2.722;2023-02-14T00:24:01;103224.22;;;5.01;100.00
54248;BME280;40161;39.768;2.722;2023-02-14T00:26:26;103220.13;;;4.93;100.00
54248;BME280;40161;39.768;2.722;2023-02-14T00:28:52;103210.28;;;4.82;100.00
54248;BME280;40161;39.768;2.722;2023-02-14T00:31:18;103213.28;;;4.86;100.00
54248;BME280;40161;39.768;2.722;2023-02-14T00:33:43;103201.28;;;4.82;100.00
54248;BME280;40161;39.768;2.722;2023-02-14T00:36:09;103210.56;;;4.91;100.00
54248;BME280;40161;39.768;2.722;2023-02-14T00:38:36;103200.22;;;4.83;100.00
54248;BME280;40161;39.768;2.722;2023-02-14T00:41:02;103209.97;;;4.73;99.45
54248;BME280;40161;39.768;2.722;2023-02-14T00:43:29;103195.50;;;4.68;100.00
54248;BME280;40161;39.768;2.722;2023-02-14T00:45:55;103197.75;;;4.76;100.00
54248;BME280;40161;39.768;2.722;2023-02-14T00:48:20;103211.63;;;4.85;100.00
54248;BME280;40161;39.768;2.722;2023-02-14T00:50:47;103205.13;;;4.91;100.00
54248;BME280;40161;39.768;2.722;2023-02-14T00:53:13;103195.50;;;4.63;100.00
54248;BME280;40161;39.768;2.722;2023-02-14T00:55:38;103200.16;;;4.72;100.00
54248;BME280;40161;39.768;2.722;2023-02-14T00:58:04;103197.53;;;4.98;100.00
54248;BME280;40161;39.768;2.722;2023-02-14T01:00:31;103189.06;;;4.84;99.15
54248;BME280;40161;39.768;2.722;2023-02-14T01:02:56;103180.84;;;4.74;99.58
54248;BME280;40161;39.768;2.722;2023-02-14T01:05:22;103165.94;;;4.87;100.00
54248;BME280;40161;39.768;2.722;2023-02-14T01:07:47;103187.75;;;5.07;100.00
54248;BME280;40161;39.768;2.722;2023-02-14T01:10:13;103182.88;;;5.14;99.93
54248;BME280;40161;39.768;2.722;2023-02-14T01:12:38;103180.03;;;4.73;97.17
54248;BME280;40161;39.768;2.722;2023-02-14T01:15:04;103172.91;;;4.57;100.00
54248;BME280;40161;39.768;2.722;2023-02-14T01:17:29;103161.47;;;4.60;100.00
54248;BME280;40161;39.768;2.722;2023-02-14T01:19:56;103172.44;;;4.75;100.00
54248;BME280;40161;39.768;2.722;2023-02-14T01:22:21;103183.06;;;4.82;100.00
54248;BME280;40161;39.768;2.722;2023-02-14T01:24:47;103167.84;;;4.86;100.00
54248;BME280;40161;39.768;2.722;2023-02-14T01:27:12;103174.09;;;4.87;100.00
54248;BME280;40161;39.768;2.722;2023-02-14T01:29:38;103170.28;;;4.83;100.00
54248;BME280;40161;39.768;2.722;2023-02-14T01:32:03;103170.34;;;5.08;100.00
54248;BME280;40161;39.768;2.722;2023-02-14T01:34:29;103155.34;;;5.00;100.00
54248;BME280;40161;39.768;2.722;2023-02-14T01:36:56;103155.88;;;4.87;99.97
54248;BME280;40161;39.768;2.722;2023-02-14T01:39:21;103169.44;;;4.77;98.63
54248;BME280;40161;39.768;2.722;2023-02-14T01:41:47;103152.28;;;4.66;100.00
54248;BME280;40161;39.768;2.722;2023-02-14T01:46:39;103151.81;;;5.05;99.82
54248;BME280;40161;39.768;2.722;2023-02-14T01:49:23;103178.72;;;4.91;96.63
54248;BME280;40161;39.768;2.722;2023-02-14T01:51:54;103173.94;;;4.46;96.18
54248;BME280;40161;39.768;2.722;2023-02-14T01:54:23;103154.09;;;4.45;100.00
54248;BME280;40161;39.768;2.722;2023-02-14T01:56:54;103175.16;;;4.81;100.00
54248;BME280;40161;39.768;2.722;2023-02-14T01:59:24;103164.16;;;4.45;97.56
54248;BME280;40161;39.768;2.722;2023-02-14T02:01:51;103160.81;;;4.33;99.77
54248;BME280;40161;39.768;2.722;2023-02-14T02:04:23;103166.81;;;4.35;100.00
54248;BME280;40161;39.768;2.722;2023-02-14T02:06:57;103159.75;;;4.34;100.00
54248;BME280;40161;39.768;2.722;2023-02-14T02:09:41;103157.63;;;4.41;100.00
54248;BME280;40161;39.768;2.722;2023-02-14T02:12:09;103155.94;;;4.35;100.00
54248;BME280;40161;39.768;2.722;2023-02-14T02:14:34;103172.50;;;4.28;100.00
54248;BME280;40161;39.768;2.722;2023-02-14T02:32:06;103176.94;;;4.44;100.00
54248;BME280;40161;39.768;2.722;2023-02-14T02:43:16;103169.69;;;4.70;100.00
54248;BME280;40161;39.768;2.722;2023-02-14T02:46:03;103171.91;;;4.84;100.00
54248;BME280;40161;39.768;2.722;2023-02-14T02:49:03;103170.50;;;4.71;99.24
54248;BME280;40161;39.768;2.722;2023-02-14T02:51:45;103159.75;;;4.39;98.48
54248;BME280;40161;39.768;2.722;2023-02-14T02:54:43;103172.03;;;4.41;99.80
54248;BME280;40161;39.768;2.722;2023-02-14T02:57:22;103153.19;;;3.82;99.45
54248;BME280;40161;39.768;2.722;2023-02-14T02:59:51;103168.28;;;4.05;100.00
54248;BME280;40161;39.768;2.722;2023-02-14T03:02:29;103169.94;;;4.06;100.00
54248;BME280;40161;39.768;2.722;2023-02-14T03:05:01;103185.22;;;4.17;100.00
54248;BME280;40161;39.768;2.722;2023-02-14T03:07:36;103183.91;;;4.30;100.00
54248;BME280;40161;39.768;2.722;2023-02-14T03:10:12;103189.16;;;4.47;100.00
54248;BME280;40161;39.768;2.722;2023-02-14T03:13:03;103170.97;;;4.52;100.00
54248;BME280;40161;39.768;2.722;2023-02-14T03:18:09;103179.47;;;4.61;100.00
54248;BME280;40161;39.768;2.722;2023-02-14T03:24:11;103180.47;;;4.50;98.88
54248;BME280;40161;39.768;2.722;2023-02-14T03:26:48;103187.66;;;4.19;98.95
54248;BME280;40161;39.768;2.722;2023-02-14T03:34:35;103159.09;;;4.16;100.00
54248;BME280;40161;39.768;2.722;2023-02-14T03:37:15;103176.59;;;4.31;100.00
54248;BME280;40161;39.768;2.722;2023-02-14T03:40:08;103174.75;;;4.41;100.00
54248;BME280;40161;39.768;2.722;2023-02-14T03:42:50;103157.06;;;4.44;100.00
54248;BME280;40161;39.768;2.722;2023-02-14T03:45:28;103179.94;;;4.48;100.00
54248;BME280;40161;39.768;2.722;2023-02-14T03:47:56;103177.75;;;4.45;100.00
54248;BME280;40161;39.768;2.722;2023-02-14T03:50:24;103173.41;;;4.49;100.00
54248;BME280;40161;39.768;2.722;2023-02-14T03:52:52;103166.97;;;4.65;100.00
54248;BME280;40161;39.768;2.722;2023-02-14T03:55:25;103170.50;;;4.71;100.00
54248;BME280;40161;39.768;2.722;2023-02-14T04:00:47;103174.03;;;4.66;100.00
54248;BME280;40161;39.768;2.722;2023-02-14T04:03:15;103176.75;;;4.61;100.00
54248;BME280;40161;39.768;2.722;2023-02-14T04:05:43;103180.06;;;4.79;100.00
54248;BME280;40161;39.768;2.722;2023-02-14T04:08:23;103165.34;;;4.69;100.00
54248;BME280;40161;39.768;2.722;2023-02-14T04:10:50;103156.66;;;4.72;100.00
54248;BME280;40161;39.768;2.722;2023-02-14T04:13:17;103164.72;;;4.57;100.00
54248;BME280;40161;39.768;2.722;2023-02-14T04:15:42;103168.25;;;4.47;100.00
54248;BME280;40161;39.768;2.722;2023-02-14T04:18:08;103146.50;;;4.47;100.00
54248;BME280;40161;39.768;2.722;2023-02-14T04:20:52;103156.38;;;4.74;100.00
54248;BME280;40161;39.768;2.722;2023-02-14T04:23:18;103177.34;;;4.84;100.00
54248;BME280;40161;39.768;2.722;2023-02-14T04:25:43;103178.13;;;4.16;99.04
54248;BME280;40161;39.768;2.722;2023-02-14T04:28:10;103180.53;;;4.08;100.00
54248;BME280;40161;39.768;2.722;2023-02-14T04:30:36;103172.50;;;4.28;100.00
54248;BME280;40161;39.768;2.722;2023-02-14T04:33:02;103174.69;;;4.36;100.00
54248;BME280;40161;39.768;2.722;2023-02-14T04:35:28;103156.72;;;4.25;100.00
54248;BME280;40161;39.768;2.722;2023-02-14T04:37:53;103168.09;;;4.22;100.00
54248;BME280;40161;39.768;2.722;2023-02-14T04:40:19;103177.63;;;4.24;100.00
54248;BME280;40161;39.768;2.722;2023-02-14T04:42:45;103180.53;;;4.13;100.00
54248;BME280;40161;39.768;2.722;2023-02-14T04:45:11;103165.59;;;4.10;100.00
54248;BME280;40161;39.768;2.722;2023-02-14T04:47:37;103169.75;;;3.80;100.00
54248;BME280;40161;39.768;2.722;2023-02-14T04:50:03;103167.16;;;3.96;100.00
54248;BME280;40161;39.768;2.722;2023-02-14T04:52:29;103175.66;;;4.10;100.00
54248;BME280;40161;39.768;2.722;2023-02-14T04:54:55;103181.03;;;4.04;100.00
54248;BME280;40161;39.768;2.722;2023-02-14T04:57:21;103157.09;;;4.01;100.00
54248;BME280;40161;39.768;2.722;2023-02-14T04:59:46;103168.91;;;4.22;100.00
54248;BME280;40161;39.768;2.722;2023-02-14T05:02:12;103174.44;;;4.38;100.00
54248;BME280;40161;39.768;2.722;2023-02-14T05:04:37;103141.91;;;4.05;100.00
54248;BME280;40161;39.768;2.722;2023-02-14T05:07:03;103173.28;;;4.23;100.00
54248;BME280;40161;39.768;2.722;2023-02-14T05:09:28;103167.34;;;4.32;100.00
54248;BME280;40161;39.768;2.722;2023-02-14T05:11:54;103158.56;;;4.19;100.00
54248;BME280;40161;39.768;2.722;2023-02-14T05:14:20;103155.63;;;4.26;100.00
54248;BME280;40161;39.768;2.722;2023-02-14T05:16:45;103151.91;;;4.42;100.00
54248;BME280;40161;39.768;2.722;2023-02-14T05:19:12;103170.69;;;4.49;100.00
54248;BME280;40161;39.768;2.722;2023-02-14T05:21:38;103172.69;;;4.16;100.00
54248;BME280;40161;39.768;2.722;2023-02-14T05:24:04;103172.16;;;4.14;100.00
54248;BME280;40161;39.768;2.722;2023-02-14T05:26:29;103174.13;;;4.29;100.00
54248;BME280;40161;39.768;2.722;2023-02-14T05:28:55;103168.81;;;4.55;100.00
54248;BME280;40161;39.768;2.722;2023-02-14T05:31:21;103176.06;;;4.34;100.00
54248;BME280;40161;39.768;2.722;2023-02-14T05:33:47;103175.31;;;4.53;100.00
54248;BME280;40161;39.768;2.722;2023-02-14T05:36:13;103185.72;;;4.67;100.00
54248;BME280;40161;39.768;2.722;2023-02-14T05:38:38;103183.81;;;4.62;100.00
54248;BME280;40161;39.768;2.722;2023-02-14T05:41:04;103168.38;;;4.20;100.00
54248;BME280;40161;39.768;2.722;2023-02-14T05:43:30;103191.34;;;4.50;100.00
54248;BME280;40161;39.768;2.722;2023-02-14T05:45:56;103187.00;;;4.49;100.00
54248;BME280;40161;39.768;2.722;2023-02-14T05:48:22;103177.28;;;4.58;100.00
54248;BME280;40161;39.768;2.722;2023-02-14T05:50:48;103182.47;;;4.65;100.00
54248;BME280;40161;39.768;2.722;2023-02-14T05:53:14;103183.25;;;4.55;100.00
54248;BME280;40161;39.768;2.722;2023-02-14T05:55:39;103178.84;;;4.54;100.00
54248;BME280;40161;39.768;2.722;2023-02-14T05:58:06;103181.66;;;4.69;100.00
54248;BME280;40161;39.768;2.722;2023-02-14T06:00:31;103178.59;;;4.56;100.00
54248;BME280;40161;39.768;2.722;2023-02-14T06:02:57;103181.03;;;4.52;100.00
54248;BME280;40161;39.768;2.722;2023-02-14T06:05:23;103181.50;;;4.34;100.00
54248;BME280;40161;39.768;2.722;2023-02-14T06:07:48;103187.88;;;4.55;100.00
54248;BME280;40161;39.768;2.722;2023-02-14T06:10:24;103179.19;;;4.68;100.00
54248;BME280;40161;39.768;2.722;2023-02-14T06:12:51;103190.09;;;4.78;100.00
54248;BME280;40161;39.768;2.722;2023-02-14T06:15:18;103186.38;;;4.89;100.00
54248;BME280;40161;39.768;2.722;2023-02-14T06:17:44;103168.38;;;4.83;100.00
54248;BME280;40161;39.768;2.722;2023-02-14T06:20:10;103182.78;;;4.79;100.00
54248;BME280;40161;39.768;2.722;2023-02-14T06:22:37;103179.19;;;4.68;100.00
54248;BME280;40161;39.768;2.722;2023-02-14T06:25:03;103176.13;;;4.54;100.00
54248;BME280;40161;39.768;2.722;2023-02-14T06:27:30;103174.81;;;4.57;100.00
54248;BME280;40161;39.768;2.722;2023-02-14T06:29:56;103173.50;;;4.69;100.00
54248;BME280;40161;39.768;2.722;2023-02-14T06:32:22;103178.16;;;4.84;100.00
54248;BME280;40161;39.768;2.722;2023-02-14T06:34:47;103183.91;;;4.93;100.00
54248;BME280;40161;39.768;2.722;2023-02-14T06:37:13;103153.44;;;4.91;100.00
54248;BME280;40161;39.768;2.722;2023-02-14T06:39:38;103171.66;;;4.95;100.00
54248;BME280;40161;39.768;2.722;2023-02-14T06:42:04;103165.44;;;5.00;100.00
54248;BME280;40161;39.768;2.722;2023-02-14T06:44:30;103172.47;;;4.86;100.00
54248;BME280;40161;39.768;2.722;2023-02-14T06:46:55;103163.22;;;4.92;100.00
54248;BME280;40161;39.768;2.722;2023-02-14T06:49:21;103182.59;;;5.11;100.00
54248;BME280;40161;39.768;2.722;2023-02-14T06:51:46;103199.22;;;5.24;100.00
54248;BME280;40161;39.768;2.722;2023-02-14T06:54:12;103190.47;;;5.02;100.00
54248;BME280;40161;39.768;2.722;2023-02-14T06:56:38;103178.22;;;4.99;100.00
54248;BME280;40161;39.768;2.722;2023-02-14T06:59:03;103196.75;;;5.03;100.00
54248;BME280;40161;39.768;2.722;2023-02-14T07:01:29;103198.94;;;5.16;100.00
54248;BME280;40161;39.768;2.722;2023-02-14T07:03:55;103205.53;;;5.30;100.00
54248;BME280;40161;39.768;2.722;2023-02-14T07:06:20;103195.13;;;5.07;100.00
54248;BME280;40161;39.768;2.722;2023-02-14T07:08:46;103185.88;;;5.18;100.00
54248;BME280;40161;39.768;2.722;2023-02-14T07:11:12;103209.88;;;5.46;100.00
54248;BME280;40161;39.768;2.722;2023-02-14T07:13:37;103203.91;;;5.55;100.00
54248;BME280;40161;39.768;2.722;2023-02-14T07:16:03;103213.97;;;5.59;100.00
54248;BME280;40161;39.768;2.722;2023-02-14T07:18:28;103202.53;;;5.57;100.00
54248;BME280;40161;39.768;2.722;2023-02-14T07:20:54;103202.25;;;5.74;100.00
54248;BME280;40161;39.768;2.722;2023-02-14T07:23:20;103217.00;;;5.88;100.00
54248;BME280;40161;39.768;2.722;2023-02-14T07:25:46;103223.28;;;5.99;100.00
54248;BME280;40161;39.768;2.722;2023-02-14T07:28:12;103224.38;;;6.03;100.00
54248;BME280;40161;39.768;2.722;2023-02-14T07:30:38;103228.47;;;6.06;100.00
54248;BME280;40161;39.768;2.722;2023-02-14T07:33:07;103212.91;;;5.86;100.00
54248;BME280;40161;39.768;2.722;2023-02-14T07:35:32;103217.25;;;5.92;100.00
54248;BME280;40161;39.768;2.722;2023-02-14T07:37:59;103217.00;;;5.78;100.00
54248;BME280;40161;39.768;2.722;2023-02-14T07:40:25;103236.06;;;5.83;100.00
54248;BME280;40161;39.768;2.722;2023-02-14T07:42:54;103211.00;;;5.66;100.00
54248;BME280;40161;39.768;2.722;2023-02-14T07:45:20;103215.34;;;5.72;100.00
54248;BME280;40161;39.768;2.722;2023-02-14T07:47:47;103225.16;;;5.68;100.00
54248;BME280;40161;39.768;2.722;2023-02-14T07:50:14;103222.72;;;5.71;100.00
54248;BME280;40161;39.768;2.722;2023-02-14T07:52:40;103218.34;;;5.65;100.00
54248;BME280;40161;39.768;2.722;2023-02-14T07:55:05;103208.00;;;5.62;100.00
54248;BME280;40161;39.768;2.722;2023-02-14T07:57:32;103204.72;;;5.60;100.00
54248;BME280;40161;39.768;2.722;2023-02-14T07:59:57;103208.81;;;5.63;100.00
54248;BME280;40161;39.768;2.722;2023-02-14T08:02:23;103215.06;;;5.74;100.00
54248;BME280;40161;39.768;2.722;2023-02-14T08:04:48;103218.88;;;5.57;100.00
54248;BME280;40161;39.768;2.722;2023-02-14T08:07:14;103216.69;;;5.44;100.00
54248;BME280;40161;39.768;2.722;2023-02-14T08:09:39;103219.44;;;5.54;100.00
54248;BME280;40161;39.768;2.722;2023-02-14T08:12:05;103205.81;;;5.59;100.00
54248;BME280;40161;39.768;2.722;2023-02-14T08:14:49;103216.16;;;5.52;100.00
54248;BME280;40161;39.768;2.722;2023-02-14T08:17:15;103215.06;;;5.48;100.00
54248;BME280;40161;39.768;2.722;2023-02-14T08:19:40;103199.00;;;5.57;100.00
54248;BME280;40161;39.768;2.722;2023-02-14T08:22:06;103213.97;;;5.59;100.00
54248;BME280;40161;39.768;2.722;2023-02-14T08:24:32;103200.91;;;5.61;100.00
54248;BME280;40161;39.768;2.722;2023-02-14T08:26:57;103215.34;;;5.77;100.00
54248;BME280;40161;39.768;2.722;2023-02-14T08:29:23;103212.63;;;5.82;100.00
54248;BME280;40161;39.768;2.722;2023-02-14T08:31:49;103203.38;;;5.99;100.00
54248;BME280;40161;39.768;2.722;2023-02-14T08:34:15;103205.00;;;6.05;100.00
54248;BME280;40161;39.768;2.722;2023-02-14T08:36:42;103213.44;;;6.13;100.00
54248;BME280;40161;39.768;2.722;2023-02-14T08:39:07;103206.91;;;6.20;100.00
54248;BME280;40161;39.768;2.722;2023-02-14T08:41:34;103197.91;;;6.09;100.00
54248;BME280;40161;39.768;2.722;2023-02-14T08:44:00;103196.78;;;6.25;100.00
54248;BME280;40161;39.768;2.722;2023-02-14T08:46:26;103197.56;;;6.36;100.00
54248;BME280;40161;39.768;2.722;2023-02-14T08:48:52;103197.28;;;6.48;100.00
54248;BME280;40161;39.768;2.722;2023-02-14T08:51:19;103201.88;;;6.57;100.00
54248;BME280;40161;39.768;2.722;2023-02-14T08:53:44;103202.97;;;6.61;100.00
54248;BME280;40161;39.768;2.722;2023-02-14T08:56:12;103195.28;;;6.69;100.00
54248;BME280;40161;39.768;2.722;2023-02-14T08:58:39;103192.78;;;6.77;100.00
54248;BME280;40161;39.768;2.722;2023-02-14T09:01:15;103196.28;;;6.88;100.00
54248;BME280;40161;39.768;2.722;2023-02-14T09:03:41;103205.50;;;7.02;100.00
54248;BME280;40161;39.768;2.722;2023-02-14T09:06:09;103201.63;;;7.08;100.00
54248;BME280;40161;39.768;2.722;2023-02-14T09:08:37;103193.16;;;7.10;100.00
54248;BME280;40161;39.768;2.722;2023-02-14T09:11:15;103205.91;;;7.25;100.00
54248;BME280;40161;39.768;2.722;2023-02-14T09:13:43;103209.13;;;7.37;100.00
54248;BME280;40161;39.768;2.722;2023-02-14T09:16:11;103205.75;;;7.45;100.00
54248;BME280;40161;39.768;2.722;2023-02-14T09:18:37;103204.09;;;7.49;100.00
54248;BME280;40161;39.768;2.722;2023-02-14T09:21:13;103170.00;;;7.42;100.00
54248;BME280;40161;39.768;2.722;2023-02-14T09:23:39;103201.19;;;7.70;100.00
54248;BME280;40161;39.768;2.722;2023-02-14T09:26:07;103201.13;;;7.80;100.00
54248;BME280;40161;39.768;2.722;2023-02-14T09:28:34;103182.75;;;7.85;100.00
54248;BME280;40161;39.768;2.722;2023-02-14T09:31:29;103191.56;;;8.06;100.00
54248;BME280;40161;39.768;2.722;2023-02-14T09:33:55;103192.59;;;8.16;100.00
54248;BME280;40161;39.768;2.722;2023-02-14T09:36:39;103157.41;;;8.04;100.00
54248;BME280;40161;39.768;2.722;2023-02-14T09:39:05;103189.34;;;8.38;100.00
54248;BME280;40161;39.768;2.722;2023-02-14T09:44:32;103177.13;;;8.54;100.00
54248;BME280;40161;39.768;2.722;2023-02-14T09:49:47;103167.59;;;8.70;100.00
54248;BME280;40161;39.768;2.722;2023-02-14T09:52:17;103162.28;;;8.79;99.44
54248;BME280;40161;39.768;2.722;2023-02-14T09:54:48;103167.09;;;8.87;98.33
54248;BME280;40161;39.768;2.722;2023-02-14T10:05:04;103161.72;;;9.20;95.55
54248;BME280;40161;39.768;2.722;2023-02-14T10:07:49;103172.66;;;9.39;95.63
54248;BME280;40161;39.768;2.722;2023-02-14T10:12:58;103165.59;;;9.51;92.12
54248;BME280;40161;39.768;2.722;2023-02-14T10:15:29;103145.88;;;9.49;91.06
54248;BME280;40161;39.768;2.722;2023-02-14T10:20:31;103168.53;;;9.74;89.69
54248;BME280;40161;39.768;2.722;2023-02-14T10:26:18;103120.72;;;9.47;87.12
54248;BME280;40161;39.768;2.722;2023-02-14T10:29:20;103168.22;;;9.89;86.40
54248;BME280;40161;39.768;2.722;2023-02-14T10:31:55;103166.72;;;9.97;85.66
54248;BME280;40161;39.768;2.722;2023-02-14T10:37:21;103161.25;;;10.11;85.83
54248;BME280;40161;39.768;2.722;2023-02-14T10:45:22;103157.84;;;10.33;83.86
54248;BME280;40161;39.768;2.722;2023-02-14T10:48:13;103154.69;;;10.39;83.43
54248;BME280;40161;39.768;2.722;2023-02-14T10:50:45;103158.13;;;10.45;83.94
54248;BME280;40161;39.768;2.722;2023-02-14T10:56:22;103149.19;;;10.67;82.80
54248;BME280;40161;39.768;2.722;2023-02-14T10:58:52;103140.63;;;10.68;82.66
54248;BME280;40161;39.768;2.722;2023-02-14T11:01:20;103134.19;;;10.73;82.02
54248;BME280;40161;39.768;2.722;2023-02-14T11:03:51;103144.84;;;10.88;82.75
54248;BME280;40161;39.768;2.722;2023-02-14T11:06:21;103135.00;;;10.87;81.87
54248;BME280;40161;39.768;2.722;2023-02-14T11:08:47;103128.22;;;10.93;82.14
54248;BME280;40161;39.768;2.722;2023-02-14T11:11:21;103110.56;;;10.86;81.06
54248;BME280;40161;39.768;2.722;2023-02-14T11:13:49;103133.31;;;11.00;81.04
54248;BME280;40161;39.768;2.722;2023-02-14T11:16:31;103119.13;;;11.07;80.60
54248;BME280;40161;39.768;2.722;2023-02-14T11:19:18;103111.41;;;11.09;80.96
54248;BME280;40161;39.768;2.722;2023-02-14T11:21:46;103108.22;;;11.15;79.60
54248;BME280;40161;39.768;2.722;2023-02-14T11:24:32;103109.59;;;11.27;79.67
54248;BME280;40161;39.768;2.722;2023-02-14T11:34:55;103097.56;;;11.45;80.28
54248;BME280;40161;39.768;2.722;2023-02-14T11:39:52;103092.63;;;11.56;78.60
54248;BME280;40161;39.768;2.722;2023-02-14T11:42:44;103081.84;;;11.68;77.85
54248;BME280;40161;39.768;2.722;2023-02-14T11:50:35;103070.69;;;11.73;76.91
54248;BME280;40161;39.768;2.722;2023-02-14T11:53:02;103057.78;;;11.74;76.87
54248;BME280;40161;39.768;2.722;2023-02-14T11:55:34;103059.41;;;11.83;77.55
54248;BME280;40161;39.768;2.722;2023-02-14T11:58:02;103047.75;;;11.78;77.69
54248;BME280;40161;39.768;2.722;2023-02-14T12:00:29;103038.53;;;11.82;77.92
54248;BME280;40161;39.768;2.722;2023-02-14T12:02:58;103034.19;;;11.81;77.17
54248;BME280;40161;39.768;2.722;2023-02-14T12:05:27;103031.09;;;11.83;77.56
54248;BME280;40161;39.768;2.722;2023-02-14T12:07:59;103043.16;;;11.96;78.06
54248;BME280;40161;39.768;2.722;2023-02-14T12:10:33;103046.56;;;12.01;77.82
54248;BME280;40161;39.768;2.722;2023-02-14T12:15:48;103042.34;;;12.04;77.56
54248;BME280;40161;39.768;2.722;2023-02-14T12:18:39;103047.06;;;12.03;76.84
54248;BME280;40161;39.768;2.722;2023-02-14T12:21:21;103049.97;;;12.07;77.21
54248;BME280;40161;39.768;2.722;2023-02-14T12:26:34;103048.53;;;12.09;76.93
54248;BME280;40161;39.768;2.722;2023-02-14T12:29:21;103036.53;;;12.05;77.15
54248;BME280;40161;39.768;2.722;2023-02-14T12:31:48;103040.28;;;12.09;77.01
54248;BME280;40161;39.768;2.722;2023-02-14T12:34:15;103030.22;;;12.05;76.91
54248;BME280;40161;39.768;2.722;2023-02-14T12:36:59;103037.69;;;12.13;76.84
54248;BME280;40161;39.768;2.722;2023-02-14T12:47:20;103001.06;;;12.04;77.03
54248;BME280;40161;39.768;2.722;2023-02-14T12:52:31;103015.53;;;12.18;75.07
54248;BME280;40161;39.768;2.722;2023-02-14T13:06:32;102993.53;;;12.35;75.72
54248;BME280;40161;39.768;2.722;2023-02-14T13:14:47;102948.47;;;12.23;75.67
54248;BME280;40161;39.768;2.722;2023-02-14T13:17:23;102971.31;;;12.41;76.23
54248;BME280;40161;39.768;2.722;2023-02-14T13:22:39;102961.59;;;12.43;76.38
54248;BME280;40161;39.768;2.722;2023-02-14T13:25:18;102952.38;;;12.39;76.48
54248;BME280;40161;39.768;2.722;2023-02-14T13:27:46;102957.25;;;12.42;76.34
54248;BME280;40161;39.768;2.722;2023-02-14T13:30:24;102915.75;;;12.21;75.66
54248;BME280;40161;39.768;2.722;2023-02-14T13:32:53;102959.00;;;12.47;75.55
54248;BME280;40161;39.768;2.722;2023-02-14T13:35:22;102930.81;;;12.41;75.09
54248;BME280;40161;39.768;2.722;2023-02-14T13:37:56;102930.81;;;12.41;74.89
54248;BME280;40161;39.768;2.722;2023-02-14T13:40:25;102915.59;;;12.35;75.50
54248;BME280;40161;39.768;2.722;2023-02-14T13:42:54;102921.25;;;12.47;74.23
54248;BME280;40161;39.768;2.722;2023-02-14T13:48:09;102917.53;;;12.43;75.38
54248;BME280;40161;39.768;2.722;2023-02-14T13:50:48;102901.03;;;12.43;75.15
54248;BME280;40161;39.768;2.722;2023-02-14T13:55:53;102889.53;;;12.50;75.30
54248;BME280;40161;39.768;2.722;2023-02-14T13:58:20;102896.63;;;12.51;75.29
54248;BME280;40161;39.768;2.722;2023-02-14T14:00:53;102878.50;;;12.50;75.77
54248;BME280;40161;39.768;2.722;2023-02-14T14:10:53;102836.75;;;12.30;76.11
54248;BME280;40161;39.768;2.722;2023-02-14T14:21:35;102862.28;;;12.57;75.89
54248;BME280;40161;39.768;2.722;2023-02-14T14:24:24;102863.75;;;12.54;75.18
54248;BME280;40161;39.768;2.722;2023-02-14T14:26:57;102855.31;;;12.51;76.34
54248;BME280;40161;39.768;2.722;2023-02-14T14:29:29;102860.19;;;12.54;75.91
54248;BME280;40161;39.768;2.722;2023-02-14T14:31:55;102863.59;;;12.51;75.49
54248;BME280;40161;39.768;2.722;2023-02-14T14:34:23;102860.34;;;12.49;75.35
54248;BME280;40161;39.768;2.722;2023-02-14T14:37:35;102857.59;;;12.49;76.39
54248;BME280;40161;39.768;2.722;2023-02-14T14:39:35;102853.06;;;12.44;76.48
54248;BME280;40161;39.768;2.722;2023-02-14T14:42:12;102810.84;;;12.14;75.79
54248;BME280;40161;39.768;2.722;2023-02-14T14:47:17;102834.78;;;12.31;76.26
54248;BME280;40161;39.768;2.722;2023-02-14T14:49:44;102846.59;;;12.31;75.93
54248;BME280;40161;39.768;2.722;2023-02-14T14:54:53;102837.22;;;12.24;76.98
54248;BME280;40161;39.768;2.722;2023-02-14T14:57:19;102825.41;;;12.23;76.63
54248;BME280;40161;39.768;2.722;2023-02-14T14:59:45;102832.72;;;12.19;77.04
54248;BME280;40161;39.768;2.722;2023-02-14T15:02:22;102854.41;;;12.29;77.26
54248;BME280;40161;39.768;2.722;2023-02-14T15:04:50;102853.91;;;12.27;76.72
54248;BME280;40161;39.768;2.722;2023-02-14T15:07:25;102859.41;;;12.27;76.93
54248;BME280;40161;39.768;2.722;2023-02-14T15:09:57;102846.78;;;12.26;76.92
54248;BME280;40161;39.768;2.722;2023-02-14T15:12:24;102846.63;;;12.23;77.03
54248;BME280;40161;39.768;2.722;2023-02-14T15:15:14;102866.06;;;12.26;76.69
54248;BME280;40161;39.768;2.722;2023-02-14T15:17:42;102867.84;;;12.22;76.96
54248;BME280;40161;39.768;2.722;2023-02-14T15:20:13;102864.59;;;12.20;77.05
54248;BME280;40161;39.768;2.722;2023-02-14T15:22:44;102862.03;;;12.15;77.34
54248;BME280;40161;39.768;2.722;2023-02-14T15:25:16;102856.66;;;12.10;76.96
54248;BME280;40161;39.768;2.722;2023-02-14T15:27:42;102860.41;;;11.97;76.54
54248;BME280;40161;39.768;2.722;2023-02-14T15:32:46;102859.91;;;12.03;76.87
54248;BME280;40161;39.768;2.722;2023-02-14T15:35:15;102872.03;;;12.11;76.34
54248;BME280;40161;39.768;2.722;2023-02-14T15:37:43;102853.59;;;12.03;76.45